sensor_id;sensor_type;location;lat;lon;timestamp;pressure;altitude;pressure_sealevel;temperature;humidity
25420;BME280;13354;48.174;11.566;2023-09-18T00:00:47;95351.63;;;20.44;77.64
25420;BME280;13354;48.174;11.566;2023-09-18T00:03:16;95351.38;;;20.45;77.71
25420;BME280;13354;48.174;11.566;2023-09-18T00:05:44;95343.81;;;20.42;78.01
25420;BME280;13354;48.174;11.566;2023-09-18T00:08:11;95341.13;;;20.37;78.21
25420;BME280;13354;48.174;11.566;2023-09-18T00:10:36;95340.03;;;20.33;77.39
25420;BME280;13354;48.174;11.566;2023-09-18T00:13:02;95336.25;;;20.34;77.38
25420;BME280;13354;48.174;11.566;2023-09-18T00:15:27;95341.56;;;20.24;77.32
25420;BME280;13354;48.174;11.566;2023-09-18T00:17:53;95335.91;;;20.20;77.39
25420;BME280;13354;48.174;11.566;2023-09-18T00:20:18;95334.81;;;20.16;77.16
25420;BME280;13354;48.174;11.566;2023-09-18T00:22:44;95325.16;;;20.20;77.15
25420;BME280;13354;48.174;11.566;2023-09-18T00:25:10;95326.53;;;20.23;76.75
25420;BME280;13354;48.174;11.566;2023-09-18T00:27:35;95323.56;;;20.24;76.39
25420;BME280;13354;48.174;11.566;2023-09-18T00:30:03;95315.78;;;20.28;76.36
25420;BME280;13354;48.174;11.566;2023-09-18T00:32:28;95322.00;;;20.34;76.24
25420;BME280;13354;48.174;11.566;2023-09-18T00:34:54;95303.19;;;20.39;74.86
25420;BME280;13354;48.174;11.566;2023-09-18T00:37:19;95303.25;;;20.44;73.94
25420;BME280;13354;48.174;11.566;2023-09-18T00:39:44;95294.91;;;20.45;73.46
25420;BME280;13354;48.174;11.566;2023-09-18T00:42:10;95290.03;;;20.42;73.10
25420;BME280;13354;48.174;11.566;2023-09-18T00:44:39;95294.31;;;20.33;73.47
25420;BME280;13354;48.174;11.566;2023-09-18T00:47:07;95290.84;;;20.38;73.07
25420;BME280;13354;48.174;11.566;2023-09-18T00:49:33;95291.06;;;20.26;73.71
25420;BME280;13354;48.174;11.566;2023-09-18T00:51:59;95292.38;;;20.18;74.59
25420;BME280;13354;48.174;11.566;2023-09-18T00:54:24;95294.50;;;20.11;74.94
25420;BME280;13354;48.174;11.566;2023-09-18T00:56:51;95291.00;;;20.11;74.86
25420;BME280;13354;48.174;11.566;2023-09-18T00:59:19;95282.88;;;20.06;74.97
25420;BME280;13354;48.174;11.566;2023-09-18T01:01:46;95278.81;;;19.98;75.00
25420;BME280;13354;48.174;11.566;2023-09-18T01:04:13;95273.69;;;19.91;75.60
25420;BME280;13354;48.174;11.566;2023-09-18T01:06:38;95272.84;;;19.86;75.33
25420;BME280;13354;48.174;11.566;2023-09-18T01:09:04;95269.59;;;19.84;75.87
25420;BME280;13354;48.174;11.566;2023-09-18T01:11:44;95265.81;;;19.79;75.73
25420;BME280;13354;48.174;11.566;2023-09-18T01:14:19;95261.78;;;19.77;75.58
25420;BME280;13354;48.174;11.566;2023-09-18T01:16:57;95265.03;;;19.79;75.17
25420;BME280;13354;48.174;11.566;2023-09-18T01:19:45;95263.66;;;19.76;75.10
25420;BME280;13354;48.174;11.566;2023-09-18T01:22:13;95262.31;;;19.74;75.28
25420;BME280;13354;48.174;11.566;2023-09-18T01:24:39;95269.59;;;19.84;73.48
25420;BME280;13354;48.174;11.566;2023-09-18T01:27:09;95267.22;;;19.87;72.38
25420;BME280;13354;48.174;11.566;2023-09-18T01:29:35;95264.88;;;20.01;70.52
25420;BME280;13354;48.174;11.566;2023-09-18T01:32:00;95268.59;;;19.95;72.17
25420;BME280;13354;48.174;11.566;2023-09-18T01:34:29;95260.75;;;19.88;72.88
25420;BME280;13354;48.174;11.566;2023-09-18T01:36:57;95269.16;;;19.97;72.18
25420;BME280;13354;48.174;11.566;2023-09-18T01:39:23;95264.03;;;19.95;71.25
25420;BME280;13354;48.174;11.566;2023-09-18T01:41:50;95273.72;;;19.96;69.80
25420;BME280;13354;48.174;11.566;2023-09-18T01:44:15;95268.06;;;19.98;70.05
25420;BME280;13354;48.174;11.566;2023-09-18T01:46:41;95269.97;;;20.02;70.41
25420;BME280;13354;48.174;11.566;2023-09-18T01:49:07;95249.03;;;19.99;69.94
25420;BME280;13354;48.174;11.566;2023-09-18T01:51:32;95243.38;;;19.96;71.08
25420;BME280;13354;48.174;11.566;2023-09-18T01:53:57;95240.63;;;19.86;71.53
25420;BME280;13354;48.174;11.566;2023-09-18T01:56:23;95244.06;;;19.76;71.62
25420;BME280;13354;48.174;11.566;2023-09-18T01:58:49;95234.38;;;19.75;72.01
25420;BME280;13354;48.174;11.566;2023-09-18T02:01:14;95228.44;;;19.73;72.14
25420;BME280;13354;48.174;11.566;2023-09-18T02:03:40;95228.75;;;19.76;71.82
25420;BME280;13354;48.174;11.566;2023-09-18T02:06:10;95235.53;;;19.89;70.21
25420;BME280;13354;48.174;11.566;2023-09-18T02:08:35;95233.88;;;19.83;70.72
25420;BME280;13354;48.174;11.566;2023-09-18T02:11:00;95236.84;;;19.87;70.39
25420;BME280;13354;48.174;11.566;2023-09-18T02:13:26;95228.63;;;20.09;67.59
25420;BME280;13354;48.174;11.566;2023-09-18T02:15:51;95223.81;;;20.11;68.44
25420;BME280;13354;48.174;11.566;2023-09-18T02:18:17;95221.38;;;20.04;69.41
25420;BME280;13354;48.174;11.566;2023-09-18T02:20:42;95220.78;;;19.97;69.99
25420;BME280;13354;48.174;11.566;2023-09-18T02:23:12;95225.59;;;19.90;70.80
25420;BME280;13354;48.174;11.566;2023-09-18T02:25:37;95218.28;;;19.80;70.84
25420;BME280;13354;48.174;11.566;2023-09-18T02:28:04;95221.75;;;19.75;71.04
25420;BME280;13354;48.174;11.566;2023-09-18T02:30:29;95221.47;;;19.72;72.08
25420;BME280;13354;48.174;11.566;2023-09-18T02:32:54;95229.50;;;19.67;71.25
25420;BME280;13354;48.174;11.566;2023-09-18T02:35:20;95216.91;;;19.72;71.80
25420;BME280;13354;48.174;11.566;2023-09-18T02:37:45;95215.59;;;19.75;71.61
25420;BME280;13354;48.174;11.566;2023-09-18T02:40:11;95201.69;;;19.93;70.34
25420;BME280;13354;48.174;11.566;2023-09-18T02:42:36;95208.91;;;19.83;70.91
25420;BME280;13354;48.174;11.566;2023-09-18T02:45:02;95208.03;;;19.67;71.99
25420;BME280;13354;48.174;11.566;2023-09-18T02:47:27;95214.09;;;19.57;72.59
25420;BME280;13354;48.174;11.566;2023-09-18T02:49:52;95207.63;;;19.48;72.56
25420;BME280;13354;48.174;11.566;2023-09-18T02:52:18;95193.06;;;19.39;73.29
25420;BME280;13354;48.174;11.566;2023-09-18T02:54:43;95189.53;;;19.33;73.46
25420;BME280;13354;48.174;11.566;2023-09-18T02:57:08;95184.41;;;19.31;73.97
25420;BME280;13354;48.174;11.566;2023-09-18T02:59:34;95184.69;;;19.30;73.67
25420;BME280;13354;48.174;11.566;2023-09-18T03:01:59;95193.47;;;19.20;73.88
25420;BME280;13354;48.174;11.566;2023-09-18T03:04:24;95197.72;;;19.11;74.27
25420;BME280;13354;48.174;11.566;2023-09-18T03:06:49;95189.41;;;19.18;73.77
25420;BME280;13354;48.174;11.566;2023-09-18T03:09:15;95191.84;;;19.19;74.08
25420;BME280;13354;48.174;11.566;2023-09-18T03:11:41;95192.88;;;19.13;74.26
25420;BME280;13354;48.174;11.566;2023-09-18T03:14:07;95192.03;;;19.08;74.69
25420;BME280;13354;48.174;11.566;2023-09-18T03:16:32;95191.19;;;19.02;74.48
25420;BME280;13354;48.174;11.566;2023-09-18T03:18:58;95180.16;;;18.98;74.90
25420;BME280;13354;48.174;11.566;2023-09-18T03:21:23;95174.19;;;18.91;75.03
25420;BME280;13354;48.174;11.566;2023-09-18T03:23:49;95169.63;;;18.92;75.09
25420;BME280;13354;48.174;11.566;2023-09-18T03:26:15;95179.88;;;18.95;74.10
25420;BME280;13354;48.174;11.566;2023-09-18T03:28:40;95175.56;;;18.94;74.01
25420;BME280;13354;48.174;11.566;2023-09-18T03:31:05;95174.75;;;18.93;73.88
25420;BME280;13354;48.174;11.566;2023-09-18T03:33:32;95166.44;;;18.95;74.15
25420;BME280;13354;48.174;11.566;2023-09-18T03:35:57;95161.66;;;18.97;74.25
25420;BME280;13354;48.174;11.566;2023-09-18T03:38:24;95155.75;;;19.00;74.21
25420;BME280;13354;48.174;11.566;2023-09-18T03:40:50;95149.84;;;18.98;74.47
25420;BME280;13354;48.174;11.566;2023-09-18T03:43:15;95153.06;;;19.00;74.74
25420;BME280;13354;48.174;11.566;2023-09-18T03:45:41;95156.53;;;18.95;73.96
25420;BME280;13354;48.174;11.566;2023-09-18T03:48:06;95147.88;;;18.88;73.90
25420;BME280;13354;48.174;11.566;2023-09-18T03:50:31;95141.63;;;18.77;74.26
25420;BME280;13354;48.174;11.566;2023-09-18T03:52:57;95135.34;;;18.67;75.03
25420;BME280;13354;48.174;11.566;2023-09-18T03:55:22;95133.50;;;18.67;75.13
25420;BME280;13354;48.174;11.566;2023-09-18T03:57:48;95132.41;;;18.63;75.16
25420;BME280;13354;48.174;11.566;2023-09-18T04:00:13;95126.69;;;18.54;76.10
25420;BME280;13354;48.174;11.566;2023-09-18T04:02:39;95135.03;;;18.58;76.20
25420;BME280;13354;48.174;11.566;2023-09-18T04:05:05;95124.25;;;18.53;75.80
25420;BME280;13354;48.174;11.566;2023-09-18T04:07:30;95130.47;;;18.58;75.67
25420;BME280;13354;48.174;11.566;2023-09-18T04:09:56;95123.78;;;18.61;75.46
25420;BME280;13354;48.174;11.566;2023-09-18T04:12:22;95124.59;;;18.62;75.86
25420;BME280;13354;48.174;11.566;2023-09-18T04:14:47;95124.25;;;18.53;75.94
25420;BME280;13354;48.174;11.566;2023-09-18T04:17:12;95123.41;;;18.47;76.48
25420;BME280;13354;48.174;11.566;2023-09-18T04:19:38;95116.44;;;18.46;76.69
25420;BME280;13354;48.174;11.566;2023-09-18T04:22:03;95102.72;;;18.43;76.59
25420;BME280;13354;48.174;11.566;2023-09-18T04:24:29;95094.97;;;18.41;76.61
25420;BME280;13354;48.174;11.566;2023-09-18T04:26:55;95094.38;;;18.39;76.62
25420;BME280;13354;48.174;11.566;2023-09-18T04:29:20;95101.56;;;18.33;76.35
25420;BME280;13354;48.174;11.566;2023-09-18T04:31:45;95094.38;;;18.39;75.83
25420;BME280;13354;48.174;11.566;2023-09-18T04:34:11;95093.09;;;18.42;76.12
25420;BME280;13354;48.174;11.566;2023-09-18T04:36:36;95108.09;;;18.43;75.20
25420;BME280;13354;48.174;11.566;2023-09-18T04:39:03;95099.47;;;18.41;75.09
25420;BME280;13354;48.174;11.566;2023-09-18T04:41:30;95100.84;;;18.43;74.71
25420;BME280;13354;48.174;11.566;2023-09-18T04:43:55;95102.47;;;18.44;74.44
25420;BME280;13354;48.174;11.566;2023-09-18T04:46:20;95102.47;;;18.44;74.25
25420;BME280;13354;48.174;11.566;2023-09-18T04:48:46;95098.69;;;18.40;74.73
25420;BME280;13354;48.174;11.566;2023-09-18T04:51:12;95100.00;;;18.38;75.60
25420;BME280;13354;48.174;11.566;2023-09-18T04:53:38;95098.88;;;18.33;76.43
25420;BME280;13354;48.174;11.566;2023-09-18T04:56:03;95099.41;;;18.30;75.94
25420;BME280;13354;48.174;11.566;2023-09-18T04:58:29;95106.13;;;18.33;76.11
25420;BME280;13354;48.174;11.566;2023-09-18T05:00:58;95106.19;;;18.38;76.04
25420;BME280;13354;48.174;11.566;2023-09-18T05:03:24;95108.94;;;18.48;75.63
25420;BME280;13354;48.174;11.566;2023-09-18T05:05:50;95112.69;;;18.47;74.71
25420;BME280;13354;48.174;11.566;2023-09-18T05:08:16;95117.19;;;18.42;75.12
25420;BME280;13354;48.174;11.566;2023-09-18T05:10:41;95118.00;;;18.42;75.40
25420;BME280;13354;48.174;11.566;2023-09-18T05:13:07;95116.94;;;18.43;75.39
25420;BME280;13354;48.174;11.566;2023-09-18T05:15:33;95126.56;;;18.44;75.60
25420;BME280;13354;48.174;11.566;2023-09-18T05:17:59;95129.53;;;18.43;75.18
25420;BME280;13354;48.174;11.566;2023-09-18T05:20:27;95117.50;;;18.45;75.19
25420;BME280;13354;48.174;11.566;2023-09-18T05:22:54;95120.19;;;18.45;75.58
25420;BME280;13354;48.174;11.566;2023-09-18T05:25:19;95125.25;;;18.42;75.72
25420;BME280;13354;48.174;11.566;2023-09-18T05:27:47;95119.66;;;18.48;75.97
25420;BME280;13354;48.174;11.566;2023-09-18T05:30:18;95121.63;;;18.58;75.59
25420;BME280;13354;48.174;11.566;2023-09-18T05:32:47;95128.06;;;18.62;75.22
25420;BME280;13354;48.174;11.566;2023-09-18T05:35:13;95121.91;;;18.62;75.87
25420;BME280;13354;48.174;11.566;2023-09-18T05:37:39;95128.28;;;18.82;75.00
25420;BME280;13354;48.174;11.566;2023-09-18T05:40:06;95126.63;;;18.76;75.37
25420;BME280;13354;48.174;11.566;2023-09-18T05:42:35;95127.69;;;18.75;75.24
25420;BME280;13354;48.174;11.566;2023-09-18T05:45:00;95131.19;;;18.76;74.88
25420;BME280;13354;48.174;11.566;2023-09-18T05:47:25;95128.31;;;18.88;74.22
25420;BME280;13354;48.174;11.566;2023-09-18T05:49:51;95127.59;;;18.97;73.11
25420;BME280;13354;48.174;11.566;2023-09-18T05:52:16;95124.38;;;19.00;74.16
25420;BME280;13354;48.174;11.566;2023-09-18T05:54:42;95124.72;;;19.14;73.93
25420;BME280;13354;48.174;11.566;2023-09-18T05:57:07;95107.72;;;19.41;72.37
25420;BME280;13354;48.174;11.566;2023-09-18T05:59:32;95095.69;;;19.59;71.87
25420;BME280;13354;48.174;11.566;2023-09-18T06:01:58;95097.69;;;19.78;71.30
25420;BME280;13354;48.174;11.566;2023-09-18T06:04:23;95088.13;;;20.18;68.64
25420;BME280;13354;48.174;11.566;2023-09-18T06:06:49;95095.44;;;20.64;66.73
25420;BME280;13354;48.174;11.566;2023-09-18T06:09:14;95103.47;;;20.94;65.02
25420;BME280;13354;48.174;11.566;2023-09-18T06:11:39;95106.72;;;20.91;65.22
25420;BME280;13354;48.174;11.566;2023-09-18T06:14:05;95116.34;;;21.23;63.03
25420;BME280;13354;48.174;11.566;2023-09-18T06:16:30;95120.66;;;21.19;62.66
25420;BME280;13354;48.174;11.566;2023-09-18T06:18:56;95126.06;;;21.14;63.29
25420;BME280;13354;48.174;11.566;2023-09-18T06:21:21;95105.56;;;21.43;63.29
25420;BME280;13354;48.174;11.566;2023-09-18T06:23:47;95107.41;;;21.53;62.68
25420;BME280;13354;48.174;11.566;2023-09-18T06:26:12;95107.66;;;21.62;63.18
25420;BME280;13354;48.174;11.566;2023-09-18T06:28:39;95120.19;;;21.92;62.87
25420;BME280;13354;48.174;11.566;2023-09-18T06:31:04;95108.06;;;21.94;61.97
25420;BME280;13354;48.174;11.566;2023-09-18T06:33:29;95110.13;;;22.08;61.29
25420;BME280;13354;48.174;11.566;2023-09-18T06:35:55;95110.38;;;22.11;61.48
25420;BME280;13354;48.174;11.566;2023-09-18T06:38:21;95119.06;;;21.98;61.65
25420;BME280;13354;48.174;11.566;2023-09-18T06:40:46;95127.69;;;22.00;60.76
25420;BME280;13354;48.174;11.566;2023-09-18T06:43:12;95128.78;;;21.94;60.63
25420;BME280;13354;48.174;11.566;2023-09-18T06:45:38;95126.94;;;21.94;60.21
25420;BME280;13354;48.174;11.566;2023-09-18T06:48:04;95118.25;;;21.98;60.25
25420;BME280;13354;48.174;11.566;2023-09-18T06:50:30;95119.13;;;21.88;61.45
25420;BME280;13354;48.174;11.566;2023-09-18T06:52:56;95120.00;;;21.73;62.70
25420;BME280;13354;48.174;11.566;2023-09-18T06:55:21;95129.44;;;21.70;62.57
25420;BME280;13354;48.174;11.566;2023-09-18T06:57:47;95139.38;;;21.75;61.94
25420;BME280;13354;48.174;11.566;2023-09-18T07:00:14;95162.63;;;21.56;62.41
25420;BME280;13354;48.174;11.566;2023-09-18T07:02:45;95175.56;;;21.49;62.73
25420;BME280;13354;48.174;11.566;2023-09-18T07:05:11;95169.91;;;21.50;63.03
25420;BME280;13354;48.174;11.566;2023-09-18T07:07:36;95173.94;;;21.27;64.56
25420;BME280;13354;48.174;11.566;2023-09-18T07:10:01;95166.19;;;21.36;63.85
25420;BME280;13354;48.174;11.566;2023-09-18T07:12:27;95176.38;;;21.39;64.43
25420;BME280;13354;48.174;11.566;2023-09-18T07:14:53;95178.28;;;21.43;64.55
25420;BME280;13354;48.174;11.566;2023-09-18T07:17:18;95180.41;;;21.31;65.05
25420;BME280;13354;48.174;11.566;2023-09-18T07:19:43;95205.47;;;21.21;65.68
25420;BME280;13354;48.174;11.566;2023-09-18T07:22:09;95204.66;;;21.26;66.32
25420;BME280;13354;48.174;11.566;2023-09-18T07:24:34;95206.81;;;21.34;66.44
25420;BME280;13354;48.174;11.566;2023-09-18T07:26:59;95203.59;;;21.37;66.08
25420;BME280;13354;48.174;11.566;2023-09-18T07:29:25;95214.06;;;21.39;66.28
25420;BME280;13354;48.174;11.566;2023-09-18T07:31:51;95211.94;;;21.41;66.46
25420;BME280;13354;48.174;11.566;2023-09-18T07:34:16;95205.47;;;21.47;65.69
25420;BME280;13354;48.174;11.566;2023-09-18T07:36:42;95202.53;;;21.43;65.83
25420;BME280;13354;48.174;11.566;2023-09-18T07:39:09;95201.72;;;21.43;66.20
25420;BME280;13354;48.174;11.566;2023-09-18T07:41:34;95196.31;;;21.48;66.59
25420;BME280;13354;48.174;11.566;2023-09-18T07:43:59;95199.25;;;21.57;66.67
25420;BME280;13354;48.174;11.566;2023-09-18T07:46:25;95199.00;;;21.58;66.62
25420;BME280;13354;48.174;11.566;2023-09-18T07:48:50;95198.75;;;21.44;67.21
25420;BME280;13354;48.174;11.566;2023-09-18T07:51:16;95199.53;;;21.50;67.60
25420;BME280;13354;48.174;11.566;2023-09-18T07:53:42;95199.25;;;21.52;68.02
25420;BME280;13354;48.174;11.566;2023-09-18T07:56:07;95193.31;;;21.60;67.38
25420;BME280;13354;48.174;11.566;2023-09-18T07:58:32;95208.97;;;21.58;67.05
25420;BME280;13354;48.174;11.566;2023-09-18T08:00:59;95219.75;;;21.48;67.32
25420;BME280;13354;48.174;11.566;2023-09-18T08:03:25;95219.72;;;21.63;66.87
25420;BME280;13354;48.174;11.566;2023-09-18T08:05:52;95225.06;;;21.68;67.02
25420;BME280;13354;48.174;11.566;2023-09-18T08:08:18;95228.78;;;21.92;67.04
25420;BME280;13354;48.174;11.566;2023-09-18T08:10:48;95239.03;;;21.90;67.40
25420;BME280;13354;48.174;11.566;2023-09-18T08:13:13;95242.47;;;22.11;67.16
25420;BME280;13354;48.174;11.566;2023-09-18T08:15:39;95243.31;;;22.07;67.02
25420;BME280;13354;48.174;11.566;2023-09-18T08:18:04;95232.16;;;22.34;65.79
25420;BME280;13354;48.174;11.566;2023-09-18T08:20:30;95232.94;;;22.45;65.69
25420;BME280;13354;48.174;11.566;2023-09-18T08:22:55;95233.81;;;22.30;66.07
25420;BME280;13354;48.174;11.566;2023-09-18T08:25:21;95237.31;;;22.35;65.96
25420;BME280;13354;48.174;11.566;2023-09-18T08:27:46;95240.22;;;22.44;66.29
25420;BME280;13354;48.174;11.566;2023-09-18T08:30:13;95246.44;;;22.39;66.42
25420;BME280;13354;48.174;11.566;2023-09-18T08:32:39;95249.06;;;22.55;65.48
25420;BME280;13354;48.174;11.566;2023-09-18T08:35:06;95260.66;;;22.55;66.08
25420;BME280;13354;48.174;11.566;2023-09-18T08:37:32;95257.41;;;22.53;66.23
25420;BME280;13354;48.174;11.566;2023-09-18T08:39:57;95264.63;;;22.68;65.29
25420;BME280;13354;48.174;11.566;2023-09-18T08:42:27;95258.75;;;22.56;66.28
25420;BME280;13354;48.174;11.566;2023-09-18T08:44:57;95257.38;;;22.69;66.07
25420;BME280;13354;48.174;11.566;2023-09-18T08:47:24;95258.75;;;22.61;66.37
25420;BME280;13354;48.174;11.566;2023-09-18T08:49:50;95275.38;;;22.78;66.16
25420;BME280;13354;48.174;11.566;2023-09-18T08:52:16;95274.81;;;22.81;66.03
25420;BME280;13354;48.174;11.566;2023-09-18T08:54:43;95278.94;;;22.69;65.94
25420;BME280;13354;48.174;11.566;2023-09-18T08:57:09;95279.16;;;22.77;65.85
25420;BME280;13354;48.174;11.566;2023-09-18T08:59:35;95286.47;;;22.77;65.54
25420;BME280;13354;48.174;11.566;2023-09-18T09:02:03;95276.72;;;22.81;65.55
25420;BME280;13354;48.174;11.566;2023-09-18T09:04:28;95291.13;;;22.61;66.60
25420;BME280;13354;48.174;11.566;2023-09-18T09:06:54;95296.28;;;22.57;66.44
25420;BME280;13354;48.174;11.566;2023-09-18T09:09:23;95296.50;;;22.66;66.05
25420;BME280;13354;48.174;11.566;2023-09-18T09:11:49;95307.63;;;22.49;66.86
25420;BME280;13354;48.174;11.566;2023-09-18T09:14:15;95310.34;;;22.44;66.47
25420;BME280;13354;48.174;11.566;2023-09-18T09:16:50;95309.78;;;22.47;66.88
25420;BME280;13354;48.174;11.566;2023-09-18T09:19:16;95303.28;;;22.53;66.99
25420;BME280;13354;48.174;11.566;2023-09-18T09:21:43;95300.34;;;22.45;67.22
25420;BME280;13354;48.174;11.566;2023-09-18T09:24:09;95301.13;;;22.55;67.33
25420;BME280;13354;48.174;11.566;2023-09-18T09:26:40;95292.75;;;22.62;66.39
25420;BME280;13354;48.174;11.566;2023-09-18T09:29:19;95289.50;;;22.60;66.66
25420;BME280;13354;48.174;11.566;2023-09-18T09:31:46;95299.84;;;22.42;66.93
25420;BME280;13354;48.174;11.566;2023-09-18T09:34:12;95296.84;;;22.44;66.89
25420;BME280;13354;48.174;11.566;2023-09-18T09:36:57;95293.91;;;22.40;66.69
25420;BME280;13354;48.174;11.566;2023-09-18T09:39:26;95278.00;;;22.39;67.10
25420;BME280;13354;48.174;11.566;2023-09-18T09:41:54;95286.91;;;22.39;66.94
25420;BME280;13354;48.174;11.566;2023-09-18T09:44:20;95291.59;;;22.68;65.25
25420;BME280;13354;48.174;11.566;2023-09-18T09:46:49;95304.63;;;22.61;65.54
25420;BME280;13354;48.174;11.566;2023-09-18T09:49:16;95300.69;;;22.93;64.82
25420;BME280;13354;48.174;11.566;2023-09-18T09:51:42;95309.84;;;22.97;64.47
25420;BME280;13354;48.174;11.566;2023-09-18T09:54:08;95308.69;;;23.08;64.11
25420;BME280;13354;48.174;11.566;2023-09-18T09:56:47;95315.25;;;22.86;64.72
25420;BME280;13354;48.174;11.566;2023-09-18T09:59:14;95323.13;;;22.83;64.75
25420;BME280;13354;48.174;11.566;2023-09-18T10:01:40;95323.97;;;22.73;64.22
25420;BME280;13354;48.174;11.566;2023-09-18T10:04:14;95319.44;;;22.69;64.26
25420;BME280;13354;48.174;11.566;2023-09-18T10:06:44;95326.38;;;22.80;63.66
25420;BME280;13354;48.174;11.566;2023-09-18T10:09:10;95332.59;;;22.80;64.22
25420;BME280;13354;48.174;11.566;2023-09-18T10:11:41;95325.63;;;22.64;64.77
25420;BME280;13354;48.174;11.566;2023-09-18T10:14:15;95325.34;;;22.76;64.30
25420;BME280;13354;48.174;11.566;2023-09-18T10:16:45;95316.09;;;22.82;63.72
25420;BME280;13354;48.174;11.566;2023-09-18T10:19:27;95314.94;;;23.03;63.46
25420;BME280;13354;48.174;11.566;2023-09-18T10:24:54;95322.97;;;23.13;62.78
25420;BME280;13354;48.174;11.566;2023-09-18T10:27:22;95316.78;;;23.13;62.67
25420;BME280;13354;48.174;11.566;2023-09-18T10:29:52;95319.38;;;23.23;62.32
25420;BME280;13354;48.174;11.566;2023-09-18T10:32:20;95320.19;;;23.29;61.62
25420;BME280;13354;48.174;11.566;2023-09-18T10:34:47;95309.97;;;23.21;61.86
25420;BME280;13354;48.174;11.566;2023-09-18T10:37:14;95326.97;;;23.21;62.34
25420;BME280;13354;48.174;11.566;2023-09-18T10:39:41;95325.38;;;23.20;62.02
25420;BME280;13354;48.174;11.566;2023-09-18T10:42:08;95336.69;;;23.27;62.09
25420;BME280;13354;48.174;11.566;2023-09-18T10:44:34;95335.88;;;23.22;60.89
25420;BME280;13354;48.174;11.566;2023-09-18T10:47:02;95345.09;;;23.15;61.35
25420;BME280;13354;48.174;11.566;2023-09-18T10:49:30;95345.09;;;23.15;60.99
25420;BME280;13354;48.174;11.566;2023-09-18T10:51:56;95341.09;;;23.13;60.95
25420;BME280;13354;48.174;11.566;2023-09-18T10:54:24;95338.94;;;23.10;61.35
25420;BME280;13354;48.174;11.566;2023-09-18T10:56:50;95332.13;;;23.18;61.06
25420;BME280;13354;48.174;11.566;2023-09-18T10:59:16;95342.19;;;23.07;61.32
25420;BME280;13354;48.174;11.566;2023-09-18T11:01:43;95332.44;;;23.11;60.89
25420;BME280;13354;48.174;11.566;2023-09-18T11:04:09;95332.63;;;23.25;60.33
25420;BME280;13354;48.174;11.566;2023-09-18T11:09:29;95341.84;;;23.19;60.48
25420;BME280;13354;48.174;11.566;2023-09-18T11:14:41;95334.41;;;23.39;60.51
25420;BME280;13354;48.174;11.566;2023-09-18T11:17:28;95346.72;;;23.17;60.53
25420;BME280;13354;48.174;11.566;2023-09-18T11:28:01;95364.84;;;23.11;59.38
25420;BME280;13354;48.174;11.566;2023-09-18T11:30:28;95369.63;;;23.24;59.02
25420;BME280;13354;48.174;11.566;2023-09-18T11:32:54;95373.78;;;23.06;59.61
25420;BME280;13354;48.174;11.566;2023-09-18T11:35:20;95374.78;;;23.21;59.32
25420;BME280;13354;48.174;11.566;2023-09-18T11:37:46;95390.56;;;22.98;59.99
25420;BME280;13354;48.174;11.566;2023-09-18T11:40:29;95385.97;;;22.94;60.19
25420;BME280;13354;48.174;11.566;2023-09-18T11:45:44;95405.72;;;22.84;60.32
25420;BME280;13354;48.174;11.566;2023-09-18T11:48:13;95402.22;;;22.78;60.34
25420;BME280;13354;48.174;11.566;2023-09-18T11:50:41;95417.38;;;22.59;60.40
25420;BME280;13354;48.174;11.566;2023-09-18T11:53:06;95415.25;;;22.56;61.21
25420;BME280;13354;48.174;11.566;2023-09-18T11:55:33;95431.72;;;22.44;62.03
25420;BME280;13354;48.174;11.566;2023-09-18T11:57:58;95443.34;;;22.29;62.56
25420;BME280;13354;48.174;11.566;2023-09-18T12:00:26;95433.88;;;22.01;62.81
25420;BME280;13354;48.174;11.566;2023-09-18T12:02:53;95460.81;;;21.76;63.91
25420;BME280;13354;48.174;11.566;2023-09-18T12:05:20;95450.28;;;21.54;64.80
25420;BME280;13354;48.174;11.566;2023-09-18T12:07:46;95443.03;;;21.69;65.00
25420;BME280;13354;48.174;11.566;2023-09-18T12:10:16;95452.19;;;21.68;65.43
25420;BME280;13354;48.174;11.566;2023-09-18T12:12:46;95453.50;;;21.61;65.80
25420;BME280;13354;48.174;11.566;2023-09-18T12:15:12;95454.06;;;21.63;65.84
25420;BME280;13354;48.174;11.566;2023-09-18T12:17:37;95461.22;;;21.32;66.89
25420;BME280;13354;48.174;11.566;2023-09-18T12:20:03;95470.38;;;21.31;67.42
25420;BME280;13354;48.174;11.566;2023-09-18T12:22:31;95468.97;;;21.13;67.89
25420;BME280;13354;48.174;11.566;2023-09-18T12:25:15;95477.50;;;20.89;68.89
25420;BME280;13354;48.174;11.566;2023-09-18T12:27:41;95482.88;;;20.89;69.30
25420;BME280;13354;48.174;11.566;2023-09-18T12:30:07;95485.16;;;20.65;70.53
25420;BME280;13354;48.174;11.566;2023-09-18T12:32:36;95491.28;;;20.56;70.99
25420;BME280;13354;48.174;11.566;2023-09-18T12:35:02;95499.81;;;20.47;72.03
25420;BME280;13354;48.174;11.566;2023-09-18T12:37:31;95495.16;;;20.38;72.75
25420;BME280;13354;48.174;11.566;2023-09-18T12:39:56;95500.44;;;20.55;72.47
25420;BME280;13354;48.174;11.566;2023-09-18T12:42:21;95504.31;;;20.37;73.22
25420;BME280;13354;48.174;11.566;2023-09-18T12:44:49;95500.75;;;20.31;73.15
25420;BME280;13354;48.174;11.566;2023-09-18T12:47:14;95498.56;;;20.23;73.76
25420;BME280;13354;48.174;11.566;2023-09-18T12:49:40;95492.91;;;20.24;73.94
25420;BME280;13354;48.174;11.566;2023-09-18T12:52:05;95501.25;;;20.23;74.00
25420;BME280;13354;48.174;11.566;2023-09-18T12:57:05;95512.41;;;20.10;75.71
25420;BME280;13354;48.174;11.566;2023-09-18T12:59:32;95532.75;;;20.00;76.75
25420;BME280;13354;48.174;11.566;2023-09-18T13:01:58;95523.28;;;19.93;77.26
25420;BME280;13354;48.174;11.566;2023-09-18T13:04:24;95534.63;;;19.73;79.10
25420;BME280;13354;48.174;11.566;2023-09-18T13:07:23;95531.41;;;19.49;80.85
25420;BME280;13354;48.174;11.566;2023-09-18T13:10:03;95531.72;;;19.30;82.18